Time;durP1;ratioP1;P1;durP2;ratioP2;P2;SDS_P1;SDS_P2;PMS_P1;PMS_P2;Temp;Humidity;BMP_temperature;BMP_pressure;BME280_temperature;BME280_humidity;BME280_pressure;Samples;Min_cycle;Max_cycle;Signal;HPM_P1;HPM_P2
2022/04/30 00:01:54;;;;;;;15.60;8.65;;;;;;;;;;5035553;28;20648;-72
2022/04/30 00:04:20;;;;;;;15.98;7.97;;;;;;;;;;5007575;28;20037;-73
2022/04/30 00:06:46;;;;;;;14.60;8.38;;;;;;;;;;5026052;28;20104;-72
2022/04/30 00:09:12;;;;;;;12.60;7.90;;;;;;;;;;5003331;28;20080;-72
2022/04/30 00:11:38;;;;;;;12.13;8.32;;;;;;;;;;5006559;28;20045;-73
2022/04/30 00:14:04;;;;;;;13.32;8.00;;;;;;;;;;5030128;28;20493;-72
2022/04/30 00:16:30;;;;;;;15.00;8.43;;;;;;;;;;5025043;28;20089;-72
2022/04/30 00:18:57;;;;;;;12.68;8.15;;;;;;;;;;5030260;28;20049;-73
2022/04/30 00:21:23;;;;;;;14.80;8.38;;;;;;;;;;5021086;28;20041;-73
2022/04/30 00:23:49;;;;;;;16.00;8.63;;;;;;;;;;5015509;28;20045;-73
2022/04/30 00:26:15;;;;;;;15.35;8.30;;;;;;;;;;5027912;28;20053;-72
2022/04/30 00:28:41;;;;;;;14.02;7.85;;;;;;;;;;5026196;28;20040;-72
2022/04/30 00:31:08;;;;;;;14.63;7.85;;;;;;;;;;5019596;28;20030;-73
2022/04/30 00:33:34;;;;;;;15.43;8.75;;;;;;;;;;5022752;28;20063;-72
2022/04/30 00:36:00;;;;;;;16.45;8.60;;;;;;;;;;5027024;28;20096;-72
2022/04/30 00:38:26;;;;;;;13.82;8.30;;;;;;;;;;5024747;28;20041;-72
2022/04/30 00:40:52;;;;;;;15.95;8.77;;;;;;;;;;5019411;28;20069;-73
2022/04/30 00:43:18;;;;;;;14.10;8.38;;;;;;;;;;5030435;28;20036;-73
2022/04/30 00:45:45;;;;;;;16.83;9.32;;;;;;;;;;5019232;28;20091;-72
2022/04/30 00:48:11;;;;;;;17.95;8.75;;;;;;;;;;5039909;28;20037;-73
2022/04/30 00:50:37;;;;;;;19.67;8.50;;;;;;;;;;5022827;28;20041;-72
2022/04/30 00:53:05;;;;;;;16.20;8.95;;;;;;;;;;5021391;28;20049;-72
2022/04/30 00:55:32;;;;;;;15.50;8.60;;;;;;;;;;5024639;28;20505;-74
2022/04/30 00:58:01;;;;;;;14.90;8.27;;;;;;;;;;5026193;28;20044;-72
2022/04/30 01:00:29;;;;;;;17.35;9.13;;;;;;;;;;5028418;28;20128;-72
2022/04/30 01:02:55;;;;;;;17.38;9.18;;;;;;;;;;5045912;28;20044;-73
2022/04/30 01:05:21;;;;;;;20.55;9.25;;;;;;;;;;5026054;28;20033;-72
2022/04/30 01:07:48;;;;;;;16.48;8.95;;;;;;;;;;5030899;28;20037;-72
2022/04/30 01:10:14;;;;;;;17.27;9.05;;;;;;;;;;5027554;28;20076;-72
2022/04/30 01:12:40;;;;;;;15.60;8.73;;;;;;;;;;5016719;28;20485;-72
2022/04/30 01:15:06;;;;;;;16.40;9.57;;;;;;;;;;5004372;28;20045;-72
2022/04/30 01:17:32;;;;;;;18.83;8.70;;;;;;;;;;5020335;28;20063;-73
2022/04/30 01:19:59;;;;;;;16.30;9.18;;;;;;;;;;5022639;28;20152;-72
2022/04/30 01:22:27;;;;;;;13.40;8.02;;;;;;;;;;5022478;28;20040;-73
2022/04/30 01:24:56;;;;;;;14.48;8.73;;;;;;;;;;5019111;28;20046;-72
2022/04/30 01:27:23;;;;;;;17.02;8.48;;;;;;;;;;5024813;28;20435;-72
2022/04/30 01:29:50;;;;;;;14.82;9.10;;;;;;;;;;5023620;28;20046;-72
2022/04/30 01:37:45;;;;;;;13.85;8.30;;;;;;;;;;5022040;28;20048;-71
2022/04/30 01:40:12;;;;;;;15.13;9.70;;;;;;;;;;5024446;28;20055;-72
2022/04/30 01:42:43;;;;;;;17.75;9.40;;;;;;;;;;5019656;28;20382;-72
2022/04/30 01:45:09;;;;;;;13.77;8.80;;;;;;;;;;5019128;28;20041;-73
2022/04/30 01:47:44;;;;;;;14.13;9.07;;;;;;;;;;5047380;28;20040;-72
2022/04/30 01:50:10;;;;;;;12.32;8.80;;;;;;;;;;5024595;28;20503;-72
2022/04/30 01:52:36;;;;;;;13.32;8.38;;;;;;;;;;5020162;28;20385;-72
2022/04/30 01:55:03;;;;;;;13.50;8.00;;;;;;;;;;5013366;28;20060;-72
2022/04/30 01:57:29;;;;;;;17.95;8.32;;;;;;;;;;5020770;28;20056;-72
2022/04/30 01:59:55;;;;;;;19.50;9.63;;;;;;;;;;5016665;28;20052;-72
2022/04/30 02:02:23;;;;;;;15.98;8.70;;;;;;;;;;5019656;28;20038;-72
2022/04/30 02:04:53;;;;;;;15.82;8.52;;;;;;;;;;5018208;28;20049;-72
2022/04/30 02:07:20;;;;;;;14.07;8.70;;;;;;;;;;5024956;28;20049;-72
2022/04/30 02:09:47;;;;;;;15.07;9.57;;;;;;;;;;5029736;28;20051;-72
2022/04/30 02:12:14;;;;;;;14.23;8.60;;;;;;;;;;5037461;28;20073;-72
2022/04/30 02:14:42;;;;;;;16.02;9.30;;;;;;;;;;5018313;28;20515;-72
2022/04/30 02:17:10;;;;;;;16.75;9.18;;;;;;;;;;5023829;28;20057;-72
2022/04/30 02:22:22;;;;;;;15.17;9.27;;;;;;;;;;5045261;28;20050;-72
2022/04/30 02:24:49;;;;;;;15.13;9.23;;;;;;;;;;5006404;28;20057;-72
2022/04/30 02:27:16;;;;;;;12.93;8.80;;;;;;;;;;5018519;28;20033;-72
2022/04/30 02:29:42;;;;;;;15.55;9.20;;;;;;;;;;5020923;28;20041;-72
2022/04/30 02:32:08;;;;;;;14.32;8.60;;;;;;;;;;5020837;28;20068;-72
2022/04/30 02:34:35;;;;;;;14.30;8.52;;;;;;;;;;5023182;28;20047;-72
2022/04/30 02:37:03;;;;;;;18.48;9.05;;;;;;;;;;5025930;28;20055;-72
2022/04/30 02:39:30;;;;;;;16.38;8.50;;;;;;;;;;5021806;28;20125;-72
2022/04/30 02:41:56;;;;;;;15.90;8.52;;;;;;;;;;5043439;28;20116;-72
2022/04/30 02:44:25;;;;;;;16.00;9.35;;;;;;;;;;5018683;28;20438;-72
2022/04/30 02:46:52;;;;;;;21.63;10.38;;;;;;;;;;5022152;28;20486;-72
2022/04/30 02:49:18;;;;;;;20.67;9.73;;;;;;;;;;5026062;28;20497;-72
2022/04/30 02:51:44;;;;;;;18.25;9.80;;;;;;;;;;5023913;28;20477;-72
2022/04/30 02:54:10;;;;;;;15.95;9.13;;;;;;;;;;5021075;28;20171;-72
2022/04/30 02:56:36;;;;;;;19.95;9.75;;;;;;;;;;5044378;28;20168;-72
2022/04/30 03:01:47;;;;;;;22.30;9.55;;;;;;;;;;5014974;28;20115;-72
2022/04/30 03:04:13;;;;;;;24.88;10.55;;;;;;;;;;5042466;28;20076;-72
2022/04/30 03:06:39;;;;;;;24.48;9.77;;;;;;;;;;5030522;28;20052;-72
2022/04/30 03:09:05;;;;;;;22.25;9.75;;;;;;;;;;5000846;28;20040;-72
2022/04/30 03:11:31;;;;;;;27.58;11.57;;;;;;;;;;5027843;28;20059;-72
2022/04/30 03:13:58;;;;;;;22.48;11.27;;;;;;;;;;5028106;28;20057;-72
2022/04/30 03:21:54;;;;;;;32.70;12.05;;;;;;;;;;5043776;28;20092;-72
2022/04/30 03:24:20;;;;;;;30.02;12.07;;;;;;;;;;5017757;28;20413;-73
2022/04/30 03:26:47;;;;;;;32.75;11.32;;;;;;;;;;5022661;28;20041;-72
2022/04/30 03:29:15;;;;;;;29.30;11.05;;;;;;;;;;5010139;28;20110;-72
2022/04/30 03:31:41;;;;;;;24.10;10.55;;;;;;;;;;5022125;28;20049;-72
2022/04/30 03:34:11;;;;;;;28.35;11.43;;;;;;;;;;5020523;28;20041;-72
2022/04/30 03:36:38;;;;;;;27.20;10.55;;;;;;;;;;5018956;28;20123;-72
2022/04/30 03:39:04;;;;;;;23.85;11.52;;;;;;;;;;5023595;28;20044;-72
2022/04/30 03:41:30;;;;;;;27.05;11.60;;;;;;;;;;5024598;28;20110;-72
2022/04/30 03:43:56;;;;;;;23.15;11.38;;;;;;;;;;5040214;28;20042;-72
2022/04/30 03:46:23;;;;;;;28.63;11.40;;;;;;;;;;5026597;28;20064;-72
2022/04/30 03:48:53;;;;;;;23.55;10.70;;;;;;;;;;5019749;28;20052;-72
2022/04/30 03:51:22;;;;;;;28.30;10.77;;;;;;;;;;5030297;28;20140;-72
2022/04/30 03:53:49;;;;;;;28.73;11.70;;;;;;;;;;5029341;28;20068;-72
2022/04/30 03:56:17;;;;;;;23.88;10.57;;;;;;;;;;5020387;28;20071;-72
2022/04/30 03:58:43;;;;;;;22.52;10.32;;;;;;;;;;5017350;28;20481;-72
2022/04/30 04:01:10;;;;;;;21.52;10.48;;;;;;;;;;5019649;28;20489;-72
2022/04/30 04:03:36;;;;;;;21.55;10.18;;;;;;;;;;5009747;28;20041;-72
2022/04/30 04:06:02;;;;;;;16.20;8.93;;;;;;;;;;5020047;28;20413;-72
2022/04/30 04:08:28;;;;;;;16.10;9.13;;;;;;;;;;5022201;28;20048;-72
2022/04/30 04:10:55;;;;;;;16.17;9.15;;;;;;;;;;5023618;28;20091;-73
2022/04/30 04:18:55;;;;;;;16.25;10.15;;;;;;;;;;5024650;28;20432;-72
2022/04/30 04:21:22;;;;;;;18.10;8.65;;;;;;;;;;5012159;28;20064;-72
2022/04/30 04:26:33;;;;;;;14.80;8.63;;;;;;;;;;5018960;28;20386;-72
2022/04/30 04:28:59;;;;;;;17.95;8.73;;;;;;;;;;5026452;28;20045;-72
2022/04/30 04:31:25;;;;;;;14.98;9.20;;;;;;;;;;5026174;28;20041;-72
2022/04/30 04:33:51;;;;;;;14.07;8.93;;;;;;;;;;5029245;28;20041;-72
2022/04/30 04:36:18;;;;;;;13.38;8.95;;;;;;;;;;5003788;28;20073;-72
2022/04/30 04:38:44;;;;;;;17.85;8.88;;;;;;;;;;5022924;28;20119;-73
2022/04/30 04:41:10;;;;;;;15.35;8.85;;;;;;;;;;5024589;28;20419;-73
2022/04/30 04:43:36;;;;;;;13.02;8.73;;;;;;;;;;5027712;28;20469;-72
2022/04/30 04:46:03;;;;;;;15.70;8.88;;;;;;;;;;5007585;28;20386;-72
2022/04/30 04:48:32;;;;;;;12.55;8.43;;;;;;;;;;5023373;28;20043;-72
2022/04/30 04:50:59;;;;;;;13.32;8.73;;;;;;;;;;5011447;28;20485;-73
2022/04/30 04:53:25;;;;;;;16.92;9.70;;;;;;;;;;5022100;28;20049;-73
2022/04/30 04:55:51;;;;;;;17.13;9.63;;;;;;;;;;5020093;28;20073;-73
2022/04/30 04:58:17;;;;;;;14.52;9.25;;;;;;;;;;5019277;28;20098;-73
2022/04/30 05:00:43;;;;;;;14.95;10.00;;;;;;;;;;5005301;28;20095;-72
2022/04/30 05:03:10;;;;;;;18.25;9.10;;;;;;;;;;5026334;28;20059;-72
2022/04/30 05:05:36;;;;;;;16.95;9.50;;;;;;;;;;5019941;28;20121;-73
2022/04/30 05:08:02;;;;;;;14.55;9.55;;;;;;;;;;5024378;28;20048;-72
2022/04/30 05:10:28;;;;;;;13.95;9.02;;;;;;;;;;5025601;28;20091;-73
2022/04/30 05:12:54;;;;;;;19.15;9.70;;;;;;;;;;5020367;28;20493;-72
2022/04/30 05:15:20;;;;;;;14.65;9.32;;;;;;;;;;5019193;28;20081;-73
2022/04/30 05:17:46;;;;;;;11.85;8.65;;;;;;;;;;5028674;28;20083;-73
2022/04/30 05:20:12;;;;;;;16.00;9.55;;;;;;;;;;5020179;28;20480;-72
2022/04/30 05:22:38;;;;;;;18.83;9.52;;;;;;;;;;5029060;28;20120;-73
2022/04/30 05:25:05;;;;;;;13.20;9.25;;;;;;;;;;5031023;28;20079;-73
2022/04/30 05:27:31;;;;;;;15.80;9.70;;;;;;;;;;5028334;28;20402;-73
2022/04/30 05:29:57;;;;;;;14.88;9.02;;;;;;;;;;5021726;28;20481;-73
2022/04/30 05:32:23;;;;;;;12.52;9.15;;;;;;;;;;5021023;28;20068;-73
2022/04/30 05:34:50;;;;;;;15.57;9.85;;;;;;;;;;5029502;28;20052;-73
2022/04/30 05:37:16;;;;;;;16.08;8.98;;;;;;;;;;5027302;28;20056;-66
2022/04/30 05:39:42;;;;;;;16.48;9.25;;;;;;;;;;5020942;28;20045;-66
2022/04/30 05:42:08;;;;;;;14.25;9.40;;;;;;;;;;5024204;28;20124;-66
2022/04/30 05:44:34;;;;;;;15.05;10.23;;;;;;;;;;5029283;28;20536;-66
2022/04/30 05:47:00;;;;;;;14.98;9.43;;;;;;;;;;5022466;28;20045;-66
2022/04/30 05:49:27;;;;;;;15.45;9.77;;;;;;;;;;5017441;28;20434;-66
2022/04/30 05:51:53;;;;;;;14.27;8.85;;;;;;;;;;5028740;28;20613;-66
2022/04/30 05:54:19;;;;;;;12.55;9.70;;;;;;;;;;5029392;28;20496;-66
2022/04/30 05:56:45;;;;;;;15.43;9.10;;;;;;;;;;5025509;28;20080;-66
2022/04/30 05:59:11;;;;;;;13.30;8.82;;;;;;;;;;5030976;28;20424;-66
2022/04/30 06:01:37;;;;;;;13.85;9.80;;;;;;;;;;5021197;28;20160;-66
2022/04/30 06:04:04;;;;;;;12.90;9.13;;;;;;;;;;5022606;28;20041;-66
2022/04/30 06:06:30;;;;;;;14.27;9.85;;;;;;;;;;5030882;28;20512;-66
2022/04/30 06:08:56;;;;;;;17.02;10.55;;;;;;;;;;5018999;28;20037;-66
2022/04/30 06:11:22;;;;;;;13.77;9.15;;;;;;;;;;5038571;28;20091;-66
2022/04/30 06:13:48;;;;;;;14.93;8.68;;;;;;;;;;5024257;28;20120;-66
2022/04/30 06:16:15;;;;;;;12.02;9.02;;;;;;;;;;5015658;28;20044;-66
2022/04/30 06:18:41;;;;;;;14.73;8.63;;;;;;;;;;5018825;28;20084;-66
2022/04/30 06:21:07;;;;;;;13.15;8.65;;;;;;;;;;5042806;28;20162;-66
2022/04/30 06:23:34;;;;;;;15.25;8.43;;;;;;;;;;5029493;28;20060;-66
2022/04/30 06:26:00;;;;;;;10.27;8.00;;;;;;;;;;5025310;28;20060;-66
2022/04/30 06:28:26;;;;;;;12.25;7.90;;;;;;;;;;5045307;28;20384;-66
2022/04/30 06:30:52;;;;;;;11.10;7.88;;;;;;;;;;5025542;28;20041;-66
2022/04/30 06:33:18;;;;;;;11.57;8.10;;;;;;;;;;5019776;28;20045;-66
2022/04/30 06:35:44;;;;;;;12.77;7.85;;;;;;;;;;5019987;28;20069;-66
2022/04/30 06:38:11;;;;;;;11.00;6.90;;;;;;;;;;5041374;28;20044;-66
2022/04/30 06:40:37;;;;;;;13.27;7.45;;;;;;;;;;5029557;28;20493;-66
2022/04/30 06:43:04;;;;;;;12.70;7.32;;;;;;;;;;5027516;28;20388;-66
2022/04/30 06:45:30;;;;;;;11.52;6.13;;;;;;;;;;5018243;28;20037;-66
2022/04/30 06:47:56;;;;;;;9.35;7.10;;;;;;;;;;5020546;28;20413;-66
2022/04/30 06:50:22;;;;;;;10.75;6.95;;;;;;;;;;5032313;28;20037;-66
2022/04/30 06:58:17;;;;;;;10.82;6.55;;;;;;;;;;5016766;28;20048;-65
2022/04/30 07:03:29;;;;;;;8.90;6.38;;;;;;;;;;5027118;28;20536;-66
2022/04/30 07:06:03;;;;;;;8.73;5.97;;;;;;;;;;5022539;28;20052;-66
2022/04/30 07:08:31;;;;;;;11.10;7.03;;;;;;;;;;5027072;28;20118;-66
2022/04/30 07:10:57;;;;;;;12.48;6.15;;;;;;;;;;5038642;28;20041;-66
2022/04/30 07:13:23;;;;;;;12.75;7.22;;;;;;;;;;5018557;28;20045;-66
2022/04/30 07:15:49;;;;;;;9.40;5.90;;;;;;;;;;5016920;28;20072;-66
2022/04/30 07:18:15;;;;;;;9.40;6.20;;;;;;;;;;5016533;28;20056;-66
2022/04/30 07:20:42;;;;;;;11.48;6.50;;;;;;;;;;5016135;28;20056;-66
2022/04/30 07:23:08;;;;;;;10.27;6.15;;;;;;;;;;5015380;28;20107;-66
2022/04/30 07:25:35;;;;;;;12.18;6.13;;;;;;;;;;5000450;28;20056;-66
2022/04/30 07:28:02;;;;;;;13.52;6.60;;;;;;;;;;5021006;28;20103;-66
2022/04/30 07:30:28;;;;;;;11.52;6.25;;;;;;;;;;5015351;28;20539;-66
2022/04/30 07:32:54;;;;;;;12.43;6.57;;;;;;;;;;5014954;28;20106;-66
2022/04/30 07:35:20;;;;;;;10.10;5.93;;;;;;;;;;5008884;28;20057;-67
2022/04/30 07:37:46;;;;;;;16.17;6.10;;;;;;;;;;5016778;28;20080;-67
2022/04/30 07:40:12;;;;;;;8.68;5.50;;;;;;;;;;5015665;28;20053;-66
2022/04/30 07:42:38;;;;;;;9.52;5.78;;;;;;;;;;5037192;28;20037;-66
2022/04/30 07:45:04;;;;;;;12.10;6.60;;;;;;;;;;5029223;28;20076;-66
2022/04/30 07:47:31;;;;;;;10.88;6.70;;;;;;;;;;5023100;28;20045;-66
2022/04/30 07:49:57;;;;;;;10.57;6.65;;;;;;;;;;5026378;28;20436;-66
2022/04/30 07:52:23;;;;;;;9.55;6.68;;;;;;;;;;5032031;28;20604;-66
2022/04/30 07:54:49;;;;;;;10.75;6.95;;;;;;;;;;5029151;28;20145;-66
2022/04/30 07:57:16;;;;;;;10.63;6.07;;;;;;;;;;5024943;28;20099;-66
2022/04/30 07:59:44;;;;;;;10.60;6.35;;;;;;;;;;5026152;28;20050;-66
2022/04/30 08:02:10;;;;;;;12.07;7.00;;;;;;;;;;5032580;28;20049;-67
2022/04/30 08:04:36;;;;;;;11.20;7.30;;;;;;;;;;5029621;28;20049;-67
2022/04/30 08:07:02;;;;;;;11.75;7.10;;;;;;;;;;5028967;28;20038;-66
2022/04/30 08:09:28;;;;;;;8.75;6.93;;;;;;;;;;5028983;28;20049;-66
2022/04/30 08:11:55;;;;;;;8.73;6.32;;;;;;;;;;5027189;28;20044;-66
2022/04/30 08:14:21;;;;;;;16.38;6.82;;;;;;;;;;5029213;28;20044;-66
2022/04/30 08:16:47;;;;;;;11.55;6.80;;;;;;;;;;5023300;28;20083;-66
2022/04/30 08:19:15;;;;;;;13.27;6.90;;;;;;;;;;5030488;28;20160;-66
2022/04/30 08:21:41;;;;;;;10.60;6.25;;;;;;;;;;5027939;28;20488;-66
2022/04/30 08:24:07;;;;;;;9.35;6.30;;;;;;;;;;5032085;28;20148;-67
2022/04/30 08:26:33;;;;;;;12.10;7.07;;;;;;;;;;5026183;28;20079;-67
2022/04/30 08:28:59;;;;;;;10.02;6.93;;;;;;;;;;5032398;28;20042;-67
2022/04/30 08:31:25;;;;;;;9.10;7.18;;;;;;;;;;5010247;28;20079;-67
2022/04/30 08:33:51;;;;;;;8.80;6.38;;;;;;;;;;5026563;28;20036;-67
2022/04/30 08:36:18;;;;;;;8.13;6.30;;;;;;;;;;5028900;28;20063;-67
2022/04/30 08:38:44;;;;;;;8.20;6.85;;;;;;;;;;5030211;28;20076;-67
2022/04/30 08:41:10;;;;;;;10.48;6.38;;;;;;;;;;5025774;28;20049;-67
2022/04/30 08:43:39;;;;;;;9.10;6.78;;;;;;;;;;5028616;28;20032;-67
2022/04/30 08:46:05;;;;;;;9.32;5.93;;;;;;;;;;5024759;28;20042;-67
2022/04/30 08:48:32;;;;;;;12.55;5.63;;;;;;;;;;5022639;28;20044;-67
2022/04/30 08:50:58;;;;;;;14.48;5.57;;;;;;;;;;5032631;28;20141;-67
2022/04/30 08:53:24;;;;;;;8.80;6.28;;;;;;;;;;5026793;28;20037;-67
2022/04/30 08:55:50;;;;;;;10.82;5.78;;;;;;;;;;5018151;28;20068;-67
2022/04/30 08:58:17;;;;;;;8.77;5.05;;;;;;;;;;5027997;28;20047;-67
2022/04/30 09:00:46;;;;;;;16.05;6.40;;;;;;;;;;5039769;28;20038;-67
2022/04/30 09:03:19;;;;;;;13.95;5.65;;;;;;;;;;5019501;28;20049;-67
2022/04/30 09:05:45;;;;;;;12.65;5.78;;;;;;;;;;5025238;28;20049;-67
2022/04/30 09:08:11;;;;;;;9.68;5.55;;;;;;;;;;5003573;28;20076;-67
2022/04/30 09:10:38;;;;;;;10.38;5.95;;;;;;;;;;5020842;28;20625;-67
2022/04/30 09:13:05;;;;;;;9.80;5.97;;;;;;;;;;5029338;28;20056;-67
2022/04/30 09:15:32;;;;;;;13.73;6.30;;;;;;;;;;5028763;28;20068;-67
2022/04/30 09:17:58;;;;;;;11.63;6.32;;;;;;;;;;5020629;28;20041;-67
2022/04/30 09:20:25;;;;;;;10.10;5.40;;;;;;;;;;5008546;28;20049;-67
2022/04/30 09:22:51;;;;;;;12.30;5.28;;;;;;;;;;5028653;28;20041;-66
2022/04/30 09:25:18;;;;;;;36.88;6.53;;;;;;;;;;5038596;28;20489;-67
2022/04/30 09:27:44;;;;;;;14.60;5.22;;;;;;;;;;5020218;28;20481;-67
2022/04/30 09:30:32;;;;;;;12.45;5.55;;;;;;;;;;5023632;28;20557;-67
2022/04/30 09:33:04;;;;;;;9.60;5.88;;;;;;;;;;5028062;28;20043;-67
2022/04/30 09:38:16;;;;;;;13.32;5.32;;;;;;;;;;5029002;28;20103;-66
2022/04/30 09:40:51;;;;;;;7.35;5.32;;;;;;;;;;5025493;28;20049;-67
2022/04/30 09:43:17;;;;;;;10.70;5.55;;;;;;;;;;5020638;28;20053;-67
2022/04/30 09:45:44;;;;;;;9.13;5.63;;;;;;;;;;5020881;28;20048;-67
2022/04/30 09:54:00;;;;;;;12.55;6.10;;;;;;;;;;5036826;28;20076;-67
2022/04/30 09:56:34;;;;;;;12.77;5.82;;;;;;;;;;5018842;28;20047;-67
2022/04/30 09:59:02;;;;;;;11.00;5.72;;;;;;;;;;5021576;28;20048;-67
2022/04/30 10:01:29;;;;;;;7.53;5.28;;;;;;;;;;5026122;28;20043;-67
2022/04/30 10:03:56;;;;;;;6.95;4.93;;;;;;;;;;5023762;28;20041;-67
2022/04/30 10:06:22;;;;;;;13.40;5.55;;;;;;;;;;5037739;28;20043;-67
2022/04/30 10:08:48;;;;;;;9.55;5.50;;;;;;;;;;5020173;28;20037;-67
2022/04/30 10:11:17;;;;;;;16.58;5.63;;;;;;;;;;5019530;28;20121;-67
2022/04/30 10:13:52;;;;;;;8.63;5.35;;;;;;;;;;5019914;28;20038;-66
2022/04/30 10:16:25;;;;;;;16.10;6.03;;;;;;;;;;5024313;28;20046;-67
2022/04/30 10:19:16;;;;;;;8.20;5.82;;;;;;;;;;5025842;28;20037;-67
2022/04/30 10:21:42;;;;;;;11.20;5.88;;;;;;;;;;4999756;28;20038;-66
2022/04/30 10:24:14;;;;;;;9.02;5.78;;;;;;;;;;5018711;28;20053;-66
2022/04/30 10:26:58;;;;;;;7.95;6.10;;;;;;;;;;5019874;28;20076;-66
2022/04/30 10:29:24;;;;;;;12.73;6.25;;;;;;;;;;5025898;28;20049;-67
2022/04/30 10:31:50;;;;;;;10.75;6.05;;;;;;;;;;5010096;28;20116;-67
2022/04/30 10:34:16;;;;;;;9.13;6.13;;;;;;;;;;5023942;28;20084;-67
2022/04/30 10:36:42;;;;;;;16.48;6.05;;;;;;;;;;5017443;28;20048;-67
2022/04/30 10:39:18;;;;;;;9.50;6.30;;;;;;;;;;5019877;28;20053;-67
2022/04/30 10:41:45;;;;;;;;;;;;;;;;;;5042006;28;20139;-67
2022/04/30 10:44:12;;;;;;;9.93;5.82;;;;;;;;;;5011727;28;20288;-67
2022/04/30 10:46:39;;;;;;;9.85;5.93;;;;;;;;;;5025795;28;20493;-67
2022/04/30 10:49:06;;;;;;;8.93;5.57;;;;;;;;;;5023036;28;20121;-67
2022/04/30 10:51:38;;;;;;;18.15;6.60;;;;;;;;;;5020773;28;20041;-67
2022/04/30 10:54:24;;;;;;;8.68;5.63;;;;;;;;;;5020234;28;20049;-67
2022/04/30 10:57:00;;;;;;;10.55;5.60;;;;;;;;;;5019536;28;20128;-67
2022/04/30 10:59:26;;;;;;;9.35;6.25;;;;;;;;;;5025318;28;20044;-67
2022/04/30 11:01:52;;;;;;;10.45;6.00;;;;;;;;;;5005832;28;20033;-67
2022/04/30 11:04:22;;;;;;;9.20;5.70;;;;;;;;;;4999793;28;20099;-67
2022/04/30 11:06:52;;;;;;;10.68;5.30;;;;;;;;;;5022336;28;20034;-67
2022/04/30 11:09:19;;;;;;;8.40;4.75;;;;;;;;;;5019971;28;20057;-67
2022/04/30 11:11:46;;;;;;;5.95;4.75;;;;;;;;;;5016643;28;20080;-67
2022/04/30 11:14:13;;;;;;;7.38;5.43;;;;;;;;;;5020976;28;20036;-67
2022/04/30 11:16:45;;;;;;;9.10;5.35;;;;;;;;;;5017739;28;20051;-68
2022/04/30 11:19:12;;;;;;;9.43;4.93;;;;;;;;;;5036065;28;20045;-67
2022/04/30 11:21:41;;;;;;;8.82;5.03;;;;;;;;;;5016184;28;20067;-67
2022/04/30 11:24:08;;;;;;;11.30;5.32;;;;;;;;;;5030451;28;20491;-67
2022/04/30 11:26:41;;;;;;;6.85;4.30;;;;;;;;;;5022357;28;20091;-67
2022/04/30 11:29:08;;;;;;;7.63;4.40;;;;;;;;;;5036584;28;20497;-66
2022/04/30 11:31:34;;;;;;;8.85;4.95;;;;;;;;;;5034851;28;20068;-67
2022/04/30 11:34:07;;;;;;;7.85;4.30;;;;;;;;;;5018554;28;20073;-67
2022/04/30 11:36:44;;;;;;;9.80;4.20;;;;;;;;;;5016539;28;20047;-67
2022/04/30 11:39:11;;;;;;;15.57;5.22;;;;;;;;;;5018564;28;20045;-66
2022/04/30 11:41:38;;;;;;;8.43;4.85;;;;;;;;;;5016375;28;20045;-66
2022/04/30 11:44:04;;;;;;;7.65;5.18;;;;;;;;;;5021590;28;20072;-67
2022/04/30 11:46:30;;;;;;;7.05;4.47;;;;;;;;;;5026822;28;20086;-67
2022/04/30 11:48:56;;;;;;;7.30;4.53;;;;;;;;;;5045971;28;20045;-66
2022/04/30 11:51:24;;;;;;;11.10;4.78;;;;;;;;;;5016841;28;20077;-67
2022/04/30 11:53:50;;;;;;;5.72;4.20;;;;;;;;;;5020974;28;20495;-67
2022/04/30 11:56:16;;;;;;;6.00;4.00;;;;;;;;;;5018738;28;20088;-66
2022/04/30 11:58:43;;;;;;;9.18;3.80;;;;;;;;;;5030024;28;20062;-67
2022/04/30 12:01:22;;;;;;;8.48;3.70;;;;;;;;;;5021148;28;20056;-67
2022/04/30 12:03:52;;;;;;;5.70;4.28;;;;;;;;;;5002861;28;20519;-67
2022/04/30 12:06:20;;;;;;;13.50;4.07;;;;;;;;;;5027367;28;20045;-66
2022/04/30 12:08:46;;;;;;;8.50;3.30;;;;;;;;;;5021922;28;20037;-67
2022/04/30 12:11:12;;;;;;;6.18;4.10;;;;;;;;;;5015992;28;20052;-67
2022/04/30 12:13:38;;;;;;;8.02;3.95;;;;;;;;;;5018485;28;20489;-66
2022/04/30 12:16:07;;;;;;;6.03;3.45;;;;;;;;;;5020235;28;20149;-67
2022/04/30 12:26:55;;;;;;;6.93;3.80;;;;;;;;;;5015462;28;20049;-67
2022/04/30 12:29:22;;;;;;;6.53;3.83;;;;;;;;;;5014837;28;20545;-67
2022/04/30 12:31:51;;;;;;;5.70;3.40;;;;;;;;;;5017380;28;20405;-66
2022/04/30 12:34:32;;;;;;;5.20;3.47;;;;;;;;;;5017570;28;20049;-66
2022/04/30 12:36:59;;;;;;;5.70;3.90;;;;;;;;;;5010758;28;20049;-67
2022/04/30 12:39:26;;;;;;;6.25;3.17;;;;;;;;;;5021035;28;20045;-67
2022/04/30 12:41:53;;;;;;;5.57;3.45;;;;;;;;;;5021846;28;20119;-66
2022/04/30 12:44:20;;;;;;;5.60;3.70;;;;;;;;;;5023358;28;20064;-67
2022/04/30 12:46:47;;;;;;;7.18;3.67;;;;;;;;;;5021386;28;20401;-66
2022/04/30 12:49:13;;;;;;;7.22;3.45;;;;;;;;;;5008989;28;20053;-67
2022/04/30 12:51:43;;;;;;;6.13;3.72;;;;;;;;;;5020709;28;20591;-67
2022/04/30 12:54:13;;;;;;;5.07;3.47;;;;;;;;;;5023149;28;20076;-67
2022/04/30 12:56:48;;;;;;;7.13;3.38;;;;;;;;;;5020300;28;20053;-67
2022/04/30 12:59:16;;;;;;;5.78;3.47;;;;;;;;;;5028621;28;20461;-67
2022/04/30 13:01:43;;;;;;;9.30;4.30;;;;;;;;;;5040642;28;20103;-67
2022/04/30 13:04:12;;;;;;;4.88;3.60;;;;;;;;;;5031509;28;20854;-67
2022/04/30 13:06:38;;;;;;;5.50;3.60;;;;;;;;;;5028120;28;20044;-67
2022/04/30 13:14:34;;;;;;;6.93;3.53;;;;;;;;;;5017929;28;20100;-67
2022/04/30 13:17:00;;;;;;;5.97;3.70;;;;;;;;;;5021719;28;20034;-67
2022/04/30 13:19:27;;;;;;;7.75;4.00;;;;;;;;;;5035933;28;20049;-67
2022/04/30 13:21:53;;;;;;;7.07;4.00;;;;;;;;;;5024142;28;20128;-66
2022/04/30 13:24:19;;;;;;;8.77;4.22;;;;;;;;;;5017995;28;20448;-67
2022/04/30 13:26:45;;;;;;;4.90;3.45;;;;;;;;;;5016033;28;20052;-67
2022/04/30 13:29:11;;;;;;;6.28;3.35;;;;;;;;;;5016480;28;20038;-67
2022/04/30 13:31:38;;;;;;;4.90;3.42;;;;;;;;;;5001352;28;20037;-67
2022/04/30 13:34:04;;;;;;;6.43;3.92;;;;;;;;;;5001823;28;20033;-67
2022/04/30 13:36:34;;;;;;;12.38;3.95;;;;;;;;;;5017656;28;20033;-67
2022/04/30 13:39:01;;;;;;;5.68;4.30;;;;;;;;;;5017730;28;20131;-67
2022/04/30 13:41:27;;;;;;;5.00;3.85;;;;;;;;;;5020360;28;20049;-67
2022/04/30 13:43:53;;;;;;;7.40;4.72;;;;;;;;;;5038097;28;20045;-66
2022/04/30 13:46:19;;;;;;;6.97;4.35;;;;;;;;;;5025906;28;20033;-66
2022/04/30 13:48:45;;;;;;;6.78;4.85;;;;;;;;;;5017696;28;20260;-67
2022/04/30 13:51:11;;;;;;;7.85;4.53;;;;;;;;;;5019792;28;20041;-67
2022/04/30 13:53:37;;;;;;;6.28;4.50;;;;;;;;;;5024764;28;20052;-67
2022/04/30 13:56:04;;;;;;;9.15;4.95;;;;;;;;;;5025436;28;20038;-67
2022/04/30 13:58:30;;;;;;;10.57;4.80;;;;;;;;;;5016611;28;20131;-67
2022/04/30 14:00:56;;;;;;;12.57;4.47;;;;;;;;;;5018742;28;20053;-67
2022/04/30 14:03:22;;;;;;;5.53;4.07;;;;;;;;;;5016850;28;20820;-67
2022/04/30 14:05:48;;;;;;;8.25;4.88;;;;;;;;;;5020885;28;20038;-66
2022/04/30 14:08:15;;;;;;;8.90;4.78;;;;;;;;;;5015906;28;20033;-67
2022/04/30 14:10:42;;;;;;;9.88;5.15;;;;;;;;;;5018248;28;20045;-67
2022/04/30 14:15:53;;;;;;;9.48;4.90;;;;;;;;;;5019548;28;20053;-67
2022/04/30 14:18:19;;;;;;;6.65;4.20;;;;;;;;;;5024441;28;20050;-67
2022/04/30 14:20:46;;;;;;;7.60;4.93;;;;;;;;;;5023012;28;20041;-66
2022/04/30 14:23:13;;;;;;;7.82;4.40;;;;;;;;;;5020577;28;20382;-67
2022/04/30 14:25:39;;;;;;;6.93;4.65;;;;;;;;;;5020543;28;20049;-67
2022/04/30 14:28:06;;;;;;;9.02;5.10;;;;;;;;;;5015347;28;20049;-67
2022/04/30 14:30:38;;;;;;;9.15;5.50;;;;;;;;;;4993526;28;20098;-66
2022/04/30 14:33:04;;;;;;;6.80;5.05;;;;;;;;;;5021117;28;20166;-66
2022/04/30 14:35:31;;;;;;;8.18;4.85;;;;;;;;;;5017361;28;20049;-67
2022/04/30 14:37:57;;;;;;;7.43;5.13;;;;;;;;;;5007570;28;20408;-67
2022/04/30 14:40:24;;;;;;;8.27;5.03;;;;;;;;;;5030548;28;20499;-67
2022/04/30 14:42:50;;;;;;;5.75;4.65;;;;;;;;;;5004503;28;20076;-67
2022/04/30 14:45:17;;;;;;;7.30;5.40;;;;;;;;;;5041713;28;20052;-67
2022/04/30 14:47:43;;;;;;;6.57;4.78;;;;;;;;;;5017616;28;20393;-67
2022/04/30 14:50:10;;;;;;;8.23;5.18;;;;;;;;;;5020187;28;20049;-67
2022/04/30 14:52:37;;;;;;;6.82;5.35;;;;;;;;;;5024491;28;20132;-67
2022/04/30 14:55:04;;;;;;;8.15;5.00;;;;;;;;;;5023907;28;20049;-67
2022/04/30 14:57:30;;;;;;;7.15;5.15;;;;;;;;;;5019588;28;20055;-67
2022/04/30 14:59:56;;;;;;;7.45;5.22;;;;;;;;;;5019720;28;20048;-66
2022/04/30 15:02:22;;;;;;;7.32;5.55;;;;;;;;;;5028829;28;20045;-67
2022/04/30 15:04:48;;;;;;;7.40;5.03;;;;;;;;;;5025515;28;20081;-67
2022/04/30 15:07:15;;;;;;;8.88;6.45;;;;;;;;;;5028270;28;20132;-67
2022/04/30 15:09:41;;;;;;;10.10;6.15;;;;;;;;;;5024569;28;20052;-66
2022/04/30 15:12:08;;;;;;;7.97;5.38;;;;;;;;;;5018026;28;20045;-67
2022/04/30 15:14:34;;;;;;;8.95;5.63;;;;;;;;;;5019956;28;20132;-67
2022/04/30 15:17:01;;;;;;;9.65;5.80;;;;;;;;;;5006972;28;20108;-67
2022/04/30 15:19:27;;;;;;;11.85;6.05;;;;;;;;;;5015365;28;20050;-67
2022/04/30 15:21:53;;;;;;;9.70;5.90;;;;;;;;;;5017751;28;20591;-66
2022/04/30 15:24:20;;;;;;;9.73;5.68;;;;;;;;;;5017737;28;20521;-67
2022/04/30 15:26:47;;;;;;;7.57;5.75;;;;;;;;;;5015556;28;20041;-66
2022/04/30 15:29:13;;;;;;;8.23;5.75;;;;;;;;;;5018369;28;20033;-67
2022/04/30 15:31:39;;;;;;;12.23;6.32;;;;;;;;;;5036013;28;20080;-67